Hlavní strana
METAR-TAF:

METAR-TAF

Letiště :

Madrid-Cuatro Vientos, Španělsko

zeměpisná šířka: 40-23N, zeměpisná délka: 003-47W, výška: 690 m

Aktuální stav počasí

Zpráva byla vytvořena před 21 minutami, v 04:30 UTC
Severovýchodní vítr 3 kt, proměnlivý mezi severozápadním a jihovýchodním
Teplota 18°C
Vlhkost vzduchu 83%
Tlak 1026 hPa
Viditelnost 10 km a více
Žádná oblačnost pod 1500 m, nevyskytují se cumulonimby.

METAR: LEVS 260430Z AUTO 04003KT 320V130 CAVOK 18/15 Q1026

Čas: 06:51 (04:51 UTC)

Předpověď počasí

Zpráva byla vytvořena před 2 hodinami a 51 minutami, v 02:00 UTC
Předpověď platná od 26 v 03 UTC do 26 v 12 UTC
Severovýchodní vítr 6 kt
Viditelnost 10 km a více
Žádná oblačnost pod 1500 m, nevyskytují se cumulonimby.

TAF: LEVS 260200Z 2603/2612 04006KT CAVOK

Stav a předpovědi počasí z více než 4 000 letišť (zprávy METAR a TAF).

Červené a žluté tečky na mapě představují dostupné meteorologické stanice.

Když kurzor umístíte na tečku, zobrazí se název stanice.

Pak kliknutím zobrazíte stav a předpověď počasí.

Chcete-li změnit mapu, kliknutím na zelené tlačítko se znaménkem +mapu přiblížíte, kliknutím na zelené tlačítko se znaménkem – mapu oddálíte a kliknutím na zelené šipky přejdete na sousední mapy.


METAR-TAF: